Time,TemperatureF,DewpointF,PressureIn,WindDirection,WindDirectionDegrees,WindSpeedMPH,WindSpeedGustMPH,Humidity,HourlyPrecipIn,Conditions,Clouds,dailyrainin,SoftwareType,DateUTC
2013-06-02 11:26:00,72.9,63.4,29.89,NE,48,3.3,3.3,72,-99.99,,,-99.99,VWS V14.01,2013-06-02 15:26:00,
2013-06-02 11:31:00,73.3,63.7,29.89,NNE,21,3.4,3.4,72,-99.99,,,-99.99,VWS V14.01,2013-06-02 15:31:00,
2013-06-02 11:36:00,73.8,63.9,29.89,ENE,69,0.0,5.7,71,-99.99,,,-99.99,VWS V14.01,2013-06-02 15:36:00,
2013-06-02 11:41:00,74.2,63.4,29.89,SE,125,0.0,0.0,69,-99.99,,,-99.99,VWS V14.01,2013-06-02 15:41:00,
2013-06-02 11:46:00,74.5,63.2,29.89,WNW,283,0.0,4.9,68,-99.99,,,-99.99,VWS V14.01,2013-06-02 15:46:00,
2013-06-02 11:51:00,74.6,62.7,29.89,West,274,3.2,3.4,66,-99.99,,,-99.99,VWS V14.01,2013-06-02 15:51:00,
2013-06-02 11:56:00,75.0,62.2,29.89,NNW,328,14.6,14.6,64,-99.99,,,-99.99,VWS V14.01,2013-06-02 15:56:00,
2013-06-02 12:01:00,75.5,62.5,29.89,West,274,0.0,0.0,64,-99.99,,,-99.99,VWS V14.01,2013-06-02 16:01:00,
2013-06-02 12:06:00,75.8,62.1,29.89,North,359,3.3,6.1,62,-99.99,,,-99.99,VWS V14.01,2013-06-02 16:06:00,
2013-06-02 12:11:00,76.2,61.6,29.89,NNE,18,9.8,16.3,61,-99.99,,,-99.99,VWS V14.01,2013-06-02 16:11:00,
2013-06-02 12:16:00,76.4,62.1,29.89,NW,326,0.0,0.0,61,-99.99,,,-99.99,VWS V14.01,2013-06-02 16:16:00,
2013-06-02 12:21:00,76.8,61.9,29.89,NW,321,6.1,6.3,60,-99.99,,,-99.99,VWS V14.01,2013-06-02 16:21:00,
2013-06-02 12:26:00,77.2,62.1,29.89,North,11,0.0,0.0,60,-99.99,,,-99.99,VWS V14.01,2013-06-02 16:26:00,
2013-06-02 12:31:00,77.2,61.7,29.89,NNW,330,10.1,10.1,59,-99.99,,,-99.99,VWS V14.01,2013-06-02 16:31:00,
2013-06-02 12:36:00,77.2,61.8,29.89,SSE,165,0.0,0.0,59,-99.99,,,-99.99,VWS V14.01,2013-06-02 16:36:00,
2013-06-02 12:41:00,77.3,62.2,29.88,SE,143,0.0,0.0,60,-99.99,,,-99.99,VWS V14.01,2013-06-02 16:41:00,
2013-06-02 12:46:00,77.5,61.7,29.88,NW,323,0.0,0.0,58,-99.99,,,-99.99,VWS V14.01,2013-06-02 16:46:00,
2013-06-02 12:51:00,77.3,60.3,29.88,NNE,27,3.2,7.8,56,-99.99,,,-99.99,VWS V14.01,2013-06-02 16:51:00,
2013-06-02 12:56:00,77.3,61.2,29.88,North,354,8.8,8.8,58,-99.99,,,-99.99,VWS V14.01,2013-06-02 16:56:00,
2013-06-02 13:01:00,77.4,61.3,29.88,West,262,3.2,4.7,58,-99.99,,,-99.99,VWS V14.01,2013-06-02 17:01:00,
2013-06-02 13:06:00,77.5,61.0,29.88,West,260,7.0,7.0,57,-99.99,,,-99.99,VWS V14.01,2013-06-02 17:06:00,
2013-06-02 13:11:00,77.7,61.5,29.88,NW,308,5.0,5.0,57,-99.99,,,-99.99,VWS V14.01,2013-06-02 17:11:00,
2013-06-02 13:16:00,77.8,61.9,29.88,West,259,0.0,0.0,58,-99.99,,,-99.99,VWS V14.01,2013-06-02 17:16:00,
2013-06-02 13:21:00,78.0,61.5,29.88,SW,229,3.3,5.3,57,-99.99,,,-99.99,VWS V14.01,2013-06-02 17:21:00,
2013-06-02 13:26:00,78.0,61.0,29.88,West,281,0.0,0.0,56,-99.99,,,-99.99,VWS V14.01,2013-06-02 17:26:00,
2013-06-02 13:31:00,78.3,60.5,29.88,WSW,248,4.7,8.4,54,-99.99,,,-99.99,VWS V14.01,2013-06-02 17:31:00,
2013-06-02 13:36:00,78.0,60.4,29.87,SW,229,2.9,4.6,55,-99.99,,,-99.99,VWS V14.01,2013-06-02 17:36:00,
2013-06-02 13:41:00,78.2,60.4,29.88,WNW,283,4.5,6.3,54,-99.99,,,-99.99,VWS V14.01,2013-06-02 17:41:00,
2013-06-02 13:46:00,78.4,60.7,29.88,NW,308,6.1,7.8,54,-99.99,,,-99.99,VWS V14.01,2013-06-02 17:46:00,
2013-06-02 13:51:00,78.7,60.4,29.88,South,172,0.0,3.0,54,-99.99,,,-99.99,VWS V14.01,2013-06-02 17:51:00,
2013-06-02 13:56:00,78.8,59.4,29.88,East,80,2.8,2.8,52,-99.99,,,-99.99,VWS V14.01,2013-06-02 17:56:00,
2013-06-02 14:01:00,78.7,58.6,29.88,West,264,0.0,3.4,50,-99.99,,,-99.99,VWS V14.01,2013-06-02 18:01:00,
2013-06-02 14:06:00,78.5,57.7,29.88,North,8,3.5,4.2,49,-99.99,,,-99.99,VWS V14.01,2013-06-02 18:06:00,
2013-06-02 14:11:00,78.5,56.7,29.87,West,269,5.8,8.2,47,-99.99,,,-99.99,VWS V14.01,2013-06-02 18:11:00,
2013-06-02 14:16:00,78.9,56.9,29.87,North,359,6.6,7.9,47,-99.99,,,-99.99,VWS V14.01,2013-06-02 18:16:00,
2013-06-02 14:21:00,79.4,57.1,29.87,WSW,253,5.8,8.5,46,-99.99,,,-99.99,VWS V14.01,2013-06-02 18:21:00,
2013-06-02 14:26:00,79.7,56.4,29.87,WNW,284,0.0,0.0,45,-99.99,,,-99.99,VWS V14.01,2013-06-02 18:26:00,
2013-06-02 14:31:00,79.8,56.3,29.87,NW,325,7.8,9.7,45,-99.99,,,-99.99,VWS V14.01,2013-06-02 18:31:00,
2013-06-02 14:36:00,79.6,56.6,29.88,North,350,9.2,11.9,45,-99.99,,,-99.99,VWS V14.01,2013-06-02 18:36:00,
2013-06-02 14:41:00,79.6,56.9,29.87,North,1,3.5,3.5,46,-99.99,,,-99.99,VWS V14.01,2013-06-02 18:41:00,
2013-06-02 14:46:00,79.3,57.2,29.87,North,352,0.0,0.0,47,-99.99,,,-99.99,VWS V14.01,2013-06-02 18:46:00,
2013-06-02 14:51:00,79.4,57.6,29.87,East,101,0.0,0.0,47,-99.99,,,-99.99,VWS V14.01,2013-06-02 18:51:00,
2013-06-02 14:56:00,80.0,57.3,29.87,NNW,336,0.0,0.0,46,-99.99,,,-99.99,VWS V14.01,2013-06-02 18:56:00,
2013-06-02 15:01:00,79.6,56.3,29.87,SSE,162,5.7,7.0,45,-99.99,,,-99.99,VWS V14.01,2013-06-02 19:01:00,
2013-06-02 15:06:00,79.5,56.9,29.87,NE,46,2.9,9.2,46,-99.99,,,-99.99,VWS V14.01,2013-06-02 19:06:00,
2013-06-02 15:11:00,79.5,57.3,29.87,South,169,0.0,8.0,47,-99.99,,,-99.99,VWS V14.01,2013-06-02 19:11:00,
2013-06-02 15:16:00,79.7,57.6,29.87,WNW,288,0.0,6.3,47,-99.99,,,-99.99,VWS V14.01,2013-06-02 19:16:00,
2013-06-02 15:21:00,79.8,57.6,29.87,WNW,288,8.2,8.2,47,-99.99,,,-99.99,VWS V14.01,2013-06-02 19:21:00,
2013-06-02 15:26:00,79.9,57.8,29.86,WNW,287,0.0,4.9,47,-99.99,,,-99.99,VWS V14.01,2013-06-02 19:26:00,
2013-06-02 15:31:00,79.7,57.2,29.87,NW,307,3.5,9.2,46,-99.99,,,-99.99,VWS V14.01,2013-06-02 19:31:00,
2013-06-02 15:36:00,79.7,57.2,29.87,WSW,252,0.0,9.4,46,-99.99,,,-99.99,VWS V14.01,2013-06-02 19:36:00,
2013-06-02 15:41:00,80.0,57.3,29.87,NW,326,2.2,3.5,46,-99.99,,,-99.99,VWS V14.01,2013-06-02 19:41:00,
2013-06-02 15:46:00,80.5,57.2,29.86,NW,322,7.1,9.1,45,-99.99,,,-99.99,VWS V14.01,2013-06-02 19:46:00,
2013-06-02 15:51:00,80.7,57.5,29.87,WSW,243,0.0,6.7,45,-99.99,,,-99.99,VWS V14.01,2013-06-02 19:51:00,
2013-06-02 15:55:00,80.4,56.5,29.87,North,352,8.7,9.8,44,-99.99,,,-99.99,VWS V14.01,2013-06-02 19:55:00,
2013-06-02 16:00:00,80.3,55.9,29.87,NNE,13,0.0,9.2,43,-99.99,,,-99.99,VWS V14.01,2013-06-02 20:00:00,
2013-06-02 16:05:00,80.1,55.7,29.87,WSW,250,0.0,0.0,43,-99.99,,,-99.99,VWS V14.01,2013-06-02 20:05:00,
2013-06-02 16:10:00,79.9,55.9,29.87,West,267,5.4,7.2,44,-99.99,,,-99.99,VWS V14.01,2013-06-02 20:10:00,
2013-06-02 16:15:00,79.7,56.2,29.86,NW,321,0.0,0.0,44,-99.99,,,-99.99,VWS V14.01,2013-06-02 20:15:00,
2013-06-02 16:20:00,79.7,56.5,29.86,WNW,300,0.0,0.0,45,-99.99,,,-99.99,VWS V14.01,2013-06-02 20:20:00,
2013-06-02 16:25:00,79.8,57.2,29.86,NW,326,4.8,7.8,46,-99.99,,,-99.99,VWS V14.01,2013-06-02 20:25:00,
2013-06-02 16:30:00,79.9,56.9,29.86,NNW,346,7.5,10.1,45,-99.99,,,-99.99,VWS V14.01,2013-06-02 20:30:00,
2013-06-02 16:35:00,79.7,57.2,29.86,North,0,0.0,0.0,46,-99.99,,,-99.99,VWS V14.01,2013-06-02 20:35:00,
2013-06-02 16:40:00,79.7,57.5,29.86,NNW,338,9.4,9.5,47,-99.99,,,-99.99,VWS V14.01,2013-06-02 20:40:00,
2013-06-02 16:45:00,79.7,57.5,29.86,ENE,76,0.0,3.4,47,-99.99,,,-99.99,VWS V14.01,2013-06-02 20:45:00,
2013-06-02 16:50:00,79.4,57.0,29.86,NW,307,6.4,11.8,46,-99.99,,,-99.99,VWS V14.01,2013-06-02 20:50:00,
2013-06-02 16:55:00,79.1,57.5,29.86,NW,323,5.7,7.5,48,-99.99,,,-99.99,VWS V14.01,2013-06-02 20:55:00,
2013-06-02 17:00:00,78.8,57.5,29.86,West,281,0.0,8.5,48,-99.99,,,-99.99,VWS V14.01,2013-06-02 21:00:00,
2013-06-02 17:05:00,78.2,57.3,29.86,NW,325,5.4,6.5,49,-99.99,,,-99.99,VWS V14.01,2013-06-02 21:05:00,
2013-06-02 17:10:00,78.0,57.3,29.86,WSW,257,3.5,10.1,49,-99.99,,,-99.99,VWS V14.01,2013-06-02 21:10:00,
2013-06-02 17:15:00,77.8,57.4,29.86,NNW,346,0.0,7.0,49,-99.99,,,-99.99,VWS V14.01,2013-06-02 21:15:00,
2013-06-02 17:20:00,77.7,57.6,29.86,WSW,249,0.0,3.4,50,-99.99,,,-99.99,VWS V14.01,2013-06-02 21:20:00,
2013-06-02 17:25:00,77.9,57.8,29.86,WNW,297,4.5,7.3,50,-99.99,,,-99.99,VWS V14.01,2013-06-02 21:25:00,
2013-06-02 17:30:00,77.9,58.0,29.86,NW,319,0.0,0.0,50,-99.99,,,-99.99,VWS V14.01,2013-06-02 21:30:00,
2013-06-02 17:35:00,77.9,58.1,29.86,West,277,0.0,0.0,50,-99.99,,,-99.99,VWS V14.01,2013-06-02 21:35:00,
2013-06-02 17:40:00,77.9,57.9,29.86,WSW,238,0.0,0.0,50,-99.99,,,-99.99,VWS V14.01,2013-06-02 21:40:00,
2013-06-02 17:45:00,78.0,58.2,29.86,WSW,253,0.0,0.0,51,-99.99,,,-99.99,VWS V14.01,2013-06-02 21:45:00,
2013-06-02 17:50:00,77.9,58.2,29.86,NW,321,0.0,0.0,51,-99.99,,,-99.99,VWS V14.01,2013-06-02 21:50:00,
2013-06-02 17:55:00,77.7,58.4,29.86,WSW,252,0.0,0.0,52,-99.99,,,-99.99,VWS V14.01,2013-06-02 21:55:00,
2013-06-02 18:00:00,77.6,58.5,29.86,WSW,252,0.0,0.0,52,-99.99,,,-99.99,VWS V14.01,2013-06-02 22:00:00,
2013-06-02 18:05:00,77.4,58.5,29.86,North,359,0.0,0.0,52,-99.99,,,-99.99,VWS V14.01,2013-06-02 22:05:00,
2013-06-02 18:10:00,77.2,58.5,29.86,North,359,0.0,0.0,52,-99.99,,,-99.99,VWS V14.01,2013-06-02 22:10:00,
2013-06-02 18:15:00,76.9,58.4,29.86,North,359,0.0,0.0,53,-99.99,,,-99.99,VWS V14.01,2013-06-02 22:15:00,
2013-06-02 18:20:00,76.7,58.4,29.86,NNW,332,0.0,0.0,53,-99.99,,,-99.99,VWS V14.01,2013-06-02 22:20:00,
2013-06-02 18:25:00,76.6,58.5,29.86,NNW,332,0.0,0.0,54,-99.99,,,-99.99,VWS V14.01,2013-06-02 22:25:00,
2013-06-02 18:30:00,76.6,58.7,29.85,NNW,332,0.0,0.0,54,-99.99,,,-99.99,VWS V14.01,2013-06-02 22:30:00,
2013-06-02 18:35:00,76.6,58.8,29.85,NNW,332,0.0,0.0,54,-99.99,,,-99.99,VWS V14.01,2013-06-02 22:35:00,
2013-06-02 18:40:00,76.6,58.8,29.85,NNW,332,0.0,0.0,54,-99.99,,,-99.99,VWS V14.01,2013-06-02 22:40:00,
2013-06-02 18:45:00,76.5,59.0,29.85,NNW,332,0.0,0.0,55,-99.99,,,-99.99,VWS V14.01,2013-06-02 22:45:00,
2013-06-02 18:50:00,76.5,58.8,29.85,NNW,332,0.0,0.0,54,-99.99,,,-99.99,VWS V14.01,2013-06-02 22:50:00,
2013-06-02 18:55:00,76.4,58.7,29.85,NNW,332,0.0,0.0,54,-99.99,,,-99.99,VWS V14.01,2013-06-02 22:55:00,
2013-06-02 19:00:00,76.2,58.8,29.85,NNW,332,0.0,0.0,55,-99.99,,,-99.99,VWS V14.01,2013-06-02 23:00:00,
2013-06-02 19:05:00,76.2,58.9,29.85,NNW,332,0.0,0.0,55,-99.99,,,-99.99,VWS V14.01,2013-06-02 23:05:00,
2013-06-02 19:10:00,75.9,58.8,29.86,NNW,332,0.0,0.0,55,-99.99,,,-99.99,VWS V14.01,2013-06-02 23:10:00,
2013-06-02 19:15:00,75.8,58.7,29.86,NNW,332,0.0,0.0,55,-99.99,,,-99.99,VWS V14.01,2013-06-02 23:15:00,
2013-06-02 19:20:00,75.8,59.0,29.86,NNW,332,0.0,0.0,56,-99.99,,,-99.99,VWS V14.01,2013-06-02 23:20:00,
2013-06-02 19:25:00,75.6,58.9,29.86,NNW,332,0.0,0.0,56,-99.99,,,-99.99,VWS V14.01,2013-06-02 23:25:00,
2013-06-02 19:30:00,75.5,59.1,29.86,NNW,332,0.0,0.0,57,-99.99,,,-99.99,VWS V14.01,2013-06-02 23:30:00,
2013-06-02 19:35:00,75.5,59.4,29.86,NNW,332,0.0,0.0,57,-99.99,,,-99.99,VWS V14.01,2013-06-02 23:35:00,
2013-06-02 19:40:00,75.4,59.1,29.85,NNW,332,0.0,0.0,57,-99.99,,,-99.99,VWS V14.01,2013-06-02 23:40:00,
2013-06-02 19:45:00,75.3,59.2,29.85,NNW,332,0.0,0.0,57,-99.99,,,-99.99,VWS V14.01,2013-06-02 23:45:00,
2013-06-02 19:50:00,75.0,58.8,29.85,NNW,332,0.0,0.0,57,-99.99,,,-99.99,VWS V14.01,2013-06-02 23:50:00,
2013-06-02 19:55:00,74.8,59.0,29.85,NNW,332,0.0,0.0,58,-99.99,,,-99.99,VWS V14.01,2013-06-02 23:55:00,
2013-06-02 20:00:00,74.8,59.7,29.85,NNW,332,0.0,0.0,59,-99.99,,,-99.99,VWS V14.01,2013-06-03 00:00:00,
2013-06-02 20:05:00,74.6,59.6,29.85,NNW,332,0.0,0.0,60,-99.99,,,-99.99,VWS V14.01,2013-06-03 00:05:00,
2013-06-02 20:10:00,74.3,59.5,29.85,NNW,332,0.0,0.0,60,-99.99,,,-99.99,VWS V14.01,2013-06-03 00:10:00,
2013-06-02 20:15:00,74.0,59.8,29.85,NNW,332,0.0,0.0,61,-99.99,,,-99.99,VWS V14.01,2013-06-03 00:15:00,
2013-06-02 20:20:00,73.7,59.3,29.85,NNW,332,0.0,0.0,61,-99.99,,,-99.99,VWS V14.01,2013-06-03 00:20:00,
2013-06-02 20:25:00,73.6,59.4,29.85,NNW,332,0.0,0.0,61,-99.99,,,-99.99,VWS V14.01,2013-06-03 00:25:00,
2013-06-02 20:30:00,73.6,59.4,29.85,NNW,332,0.0,0.0,61,-99.99,,,-99.99,VWS V14.01,2013-06-03 00:30:00,
2013-06-02 20:35:00,73.6,59.4,29.85,NNW,332,0.0,0.0,61,-99.99,,,-99.99,VWS V14.01,2013-06-03 00:35:00,
2013-06-02 20:40:00,73.6,59.5,29.85,NNW,332,0.0,0.0,61,-99.99,,,-99.99,VWS V14.01,2013-06-03 00:40:00,
2013-06-02 20:45:00,73.6,59.7,29.85,NNW,332,0.0,0.0,62,-99.99,,,-99.99,VWS V14.01,2013-06-03 00:45:00,
2013-06-02 20:50:00,73.4,60.0,29.85,NNW,332,0.0,0.0,63,-99.99,,,-99.99,VWS V14.01,2013-06-03 00:50:00,
2013-06-02 20:55:00,73.0,59.8,29.85,NNW,332,0.0,0.0,63,-99.99,,,-99.99,VWS V14.01,2013-06-03 00:55:00,
2013-06-02 21:00:00,72.9,59.6,29.85,NNW,332,0.0,0.0,63,-99.99,,,-99.99,VWS V14.01,2013-06-03 01:00:00,
2013-06-02 21:05:00,72.7,59.7,29.86,NNW,332,0.0,0.0,64,-99.99,,,-99.99,VWS V14.01,2013-06-03 01:05:00,
2013-06-02 21:10:00,72.5,59.7,29.86,NNW,332,0.0,0.0,64,-99.99,,,-99.99,VWS V14.01,2013-06-03 01:10:00,
2013-06-02 21:15:00,72.3,59.5,29.86,NNW,332,0.0,0.0,64,-99.99,,,-99.99,VWS V14.01,2013-06-03 01:15:00,
2013-06-02 21:20:00,72.2,59.8,29.86,NNW,332,0.0,0.0,65,-99.99,,,-99.99,VWS V14.01,2013-06-03 01:20:00,
2013-06-02 21:25:00,71.9,59.5,29.86,NNW,332,0.0,0.0,65,-99.99,,,-99.99,VWS V14.01,2013-06-03 01:25:00,
2013-06-02 21:30:00,71.8,59.6,29.86,NNW,332,0.0,0.0,66,-99.99,,,-99.99,VWS V14.01,2013-06-03 01:30:00,